Time;durP1;ratioP1;P1;durP2;ratioP2;P2;SDS_P1;SDS_P2;PMS_P1;PMS_P2;Temp;Humidity;BMP_temperature;BMP_pressure;BME280_temperature;BME280_humidity;BME280_pressure;Samples;Min_cycle;Max_cycle;Signal;HPM_P1;HPM_P2
2022/06/03 00:01:24;;;;;;;5.90;5.50;;;15.60;99.90;;;;;;4940130;28;20453;-90
2022/06/03 00:04:14;;;;;;;6.90;6.10;;;15.70;99.90;;;;;;4954495;28;20449;-89
2022/06/03 00:06:56;;;;;;;6.13;5.60;;;15.60;99.90;;;;;;4947239;28;20772;-89
2022/06/03 00:09:31;;;;;;;6.47;5.97;;;15.50;99.90;;;;;;4932733;28;20589;-90
2022/06/03 00:12:05;;;;;;;5.83;5.40;;;15.60;99.90;;;;;;4960270;28;20444;-89
2022/06/03 00:15:00;;;;;;;6.70;6.00;;;15.60;99.90;;;;;;4944117;28;20520;-90
2022/06/03 00:18:19;;;;;;;5.33;4.93;;;15.60;99.90;;;;;;4931672;28;21858;-89
2022/06/03 00:21:09;;;;;;;7.37;5.40;;;15.70;99.90;;;;;;4917641;28;20441;-89
2022/06/03 00:24:06;;;;;;;7.20;5.40;;;15.60;99.90;;;;;;4940577;28;20445;-89
2022/06/03 00:26:35;;;;;;;6.80;6.20;;;15.40;99.90;;;;;;4941418;28;20784;-90
2022/06/03 00:29:09;;;;;;;6.60;6.20;;;15.40;99.90;;;;;;4934466;28;20562;-90
2022/06/03 00:32:04;;;;;;;6.57;6.17;;;15.20;99.90;;;;;;4956461;28;20447;-89
2022/06/03 00:35:01;;;;;;;6.03;5.53;;;15.20;99.90;;;;;;4946154;28;23759;-89
2022/06/03 00:37:57;;;;;;;6.43;6.00;;;15.30;99.90;;;;;;4881674;28;22502;-89
2022/06/03 00:40:35;;;;;;;6.47;5.87;;;15.40;99.90;;;;;;4966403;28;20511;-90
2022/06/03 00:43:28;;;;;;;5.90;5.50;;;15.20;99.90;;;;;;4947857;28;20491;-89
2022/06/03 00:46:18;;;;;;;6.87;5.40;;;15.20;99.90;;;;;;4949938;28;21423;-88
2022/06/03 00:49:24;;;;;;;6.07;5.60;;;15.10;99.90;;;;;;4931257;28;20459;-89
2022/06/03 00:52:28;;;;;;;6.30;5.80;;;15.10;99.90;;;;;;4925837;28;21937;-88
2022/06/03 00:55:25;;;;;;;6.57;5.87;;;15.00;99.90;;;;;;4906547;28;20557;-88
2022/06/03 00:58:04;;;;;;;6.13;5.63;;;14.90;99.90;;;;;;4944264;28;20590;-88
2022/06/03 01:00:44;;;;;;;6.20;5.73;;;14.80;99.90;;;;;;4950106;28;20795;-89
2022/06/03 01:03:09;;;;;;;6.17;5.60;;;14.80;99.90;;;;;;4951676;28;20449;-88
2022/06/03 01:06:12;;;;;;;6.47;5.87;;;14.90;99.90;;;;;;4954185;28;20517;-88
2022/06/03 01:09:01;;;;;;;6.10;5.60;;;15.00;99.90;;;;;;4960110;28;20210;-88
2022/06/03 01:11:42;;;;;;;6.20;5.70;;;14.90;99.90;;;;;;4941516;28;21057;-89
2022/06/03 01:14:23;;;;;;;6.27;5.80;;;14.80;99.90;;;;;;4948481;28;20556;-89
2022/06/03 01:16:59;;;;;;;5.73;5.23;;;14.90;99.90;;;;;;4958021;28;20508;-90
2022/06/03 01:19:39;;;;;;;5.80;5.40;;;15.00;99.90;;;;;;4963510;28;20448;-89
2022/06/03 01:22:24;;;;;;;5.63;5.23;;;15.10;99.90;;;;;;4945364;28;22716;-90
2022/06/03 01:25:32;;;;;;;6.37;5.90;;;15.10;99.90;;;;;;4961579;28;20737;-89
2022/06/03 01:28:30;;;;;;;5.80;5.40;;;15.10;99.90;;;;;;4943921;28;20453;-89
2022/06/03 01:31:08;;;;;;;5.80;5.40;;;15.10;99.90;;;;;;4958201;28;20484;-90
2022/06/03 01:34:00;;;;;;;6.23;5.73;;;15.10;99.90;;;;;;4933258;28;20469;-88
2022/06/03 01:36:41;;;;;;;6.57;5.97;;;15.00;99.90;;;;;;4940090;28;20487;-89
2022/06/03 01:39:43;;;;;;;7.70;7.10;;;15.00;99.90;;;;;;4929660;28;20452;-89
2022/06/03 01:42:15;;;;;;;8.43;7.73;;;15.00;99.90;;;;;;4956552;28;20521;-89
2022/06/03 01:44:49;;;;;;;8.40;7.60;;;15.00;99.90;;;;;;4938868;28;20442;-88
2022/06/03 01:47:52;;;;;;;7.60;7.00;;;15.00;99.90;;;;;;4952399;28;20559;-88
2022/06/03 01:50:40;;;;;;;7.30;6.70;;;14.70;99.90;;;;;;4955960;28;20441;-89
2022/06/03 01:53:51;;;;;;;8.10;7.40;;;14.60;99.90;;;;;;4944522;28;20450;-88
2022/06/03 01:56:44;;;;;;;9.70;8.87;;;14.60;99.90;;;;;;4909488;28;20430;-88
2022/06/03 01:59:16;;;;;;;9.70;8.83;;;14.70;99.90;;;;;;4944468;28;20490;-88
2022/06/03 02:02:17;;;;;;;8.50;7.90;;;14.70;99.90;;;;;;4959743;28;20455;-88
2022/06/03 02:04:54;;;;;;;7.70;7.00;;;14.70;99.90;;;;;;4947595;28;20507;-88
2022/06/03 02:07:54;;;;;;;7.90;6.77;;;14.60;99.90;;;;;;4956593;28;20474;-88
2022/06/03 02:10:33;;;;;;;9.23;8.43;;;14.60;99.90;;;;;;4961621;28;20430;-89
2022/06/03 02:13:20;;;;;;;8.50;7.83;;;14.60;99.90;;;;;;4940953;28;20453;-88
2022/06/03 02:15:58;;;;;;;8.57;7.87;;;14.60;99.90;;;;;;4956905;28;21036;-88
2022/06/03 02:18:51;;;;;;;9.50;8.60;;;14.60;99.90;;;;;;4953600;28;20477;-89
2022/06/03 02:21:51;;;;;;;8.57;7.90;;;14.60;99.90;;;;;;4953636;28;20445;-89
2022/06/03 02:24:35;;;;;;;7.17;6.57;;;14.50;99.90;;;;;;4937414;28;20801;-89
2022/06/03 02:27:31;;;;;;;7.80;7.10;;;14.40;99.90;;;;;;4945911;28;20488;-89
2022/06/03 02:30:29;;;;;;;7.23;6.57;;;14.30;99.90;;;;;;4934105;28;20517;-89
2022/06/03 02:33:13;;;;;;;7.30;6.70;;;14.30;99.90;;;;;;4941756;28;20456;-88
2022/06/03 02:35:52;;;;;;;6.93;6.33;;;14.20;99.90;;;;;;4947719;28;21211;-88
2022/06/03 02:38:56;;;;;;;7.07;6.43;;;14.20;99.90;;;;;;4947530;28;20454;-88
2022/06/03 02:41:46;;;;;;;6.83;6.27;;;14.10;99.90;;;;;;4944125;28;20452;-89
2022/06/03 02:44:40;;;;;;;7.10;6.40;;;14.10;99.90;;;;;;4945927;28;20504;-88
2022/06/03 02:47:24;;;;;;;6.83;6.23;;;14.10;99.90;;;;;;4955451;28;20497;-89
2022/06/03 02:50:01;;;;;;;7.47;6.87;;;14.10;99.90;;;;;;4933384;28;20990;-88
2022/06/03 02:53:15;;;;;;;6.90;6.33;;;14.10;99.90;;;;;;4958620;28;20453;-89
2022/06/03 02:56:09;;;;;;;7.33;6.73;;;14.20;99.90;;;;;;4943148;28;20735;-89
2022/06/03 02:58:57;;;;;;;13.80;12.27;;;14.30;99.90;;;;;;4937239;28;20989;-89
2022/06/03 03:02:01;;;;;;;8.13;7.43;;;14.30;99.90;;;;;;4940352;28;20453;-89
2022/06/03 03:05:03;;;;;;;6.90;6.40;;;14.30;99.90;;;;;;4948134;28;20485;-89
2022/06/03 03:07:36;;;;;;;6.20;5.60;;;14.30;99.90;;;;;;4941672;28;20967;-89
2022/06/03 03:10:21;;;;;;;6.57;5.90;;;14.30;99.90;;;;;;4949054;28;20938;-89
2022/06/03 03:13:14;;;;;;;6.70;6.20;;;14.30;99.90;;;;;;4949844;28;20459;-89
2022/06/03 03:16:03;;;;;;;9.33;6.20;;;14.20;99.90;;;;;;4944945;28;20452;-88
2022/06/03 03:18:48;;;;;;;7.03;6.23;;;14.20;99.90;;;;;;4933610;28;20451;-88
2022/06/03 03:21:45;;;;;;;6.50;6.00;;;14.30;99.90;;;;;;4946252;28;20488;-88
2022/06/03 03:24:42;;;;;;;6.97;6.30;;;14.30;99.90;;;;;;4948664;28;20445;-88
2022/06/03 03:27:20;;;;;;;6.70;6.20;;;14.20;99.90;;;;;;4920503;28;21018;-88
2022/06/03 03:30:23;;;;;;;7.23;6.53;;;14.20;99.90;;;;;;4931091;28;20564;-89
2022/06/03 03:33:19;;;;;;;6.70;6.00;;;14.20;99.90;;;;;;4953868;28;20439;-90
2022/06/03 03:36:23;;;;;;;7.50;6.80;;;14.30;99.90;;;;;;4930439;28;20446;-88
2022/06/03 03:39:08;;;;;;;8.20;7.40;;;14.30;99.90;;;;;;4957196;28;20454;-89
2022/06/03 03:41:52;;;;;;;8.43;7.60;;;14.30;99.90;;;;;;4942853;28;20435;-88
2022/06/03 03:44:48;;;;;;;8.33;7.73;;;14.20;99.90;;;;;;4955645;28;20442;-89
2022/06/03 03:48:06;;;;;;;8.60;7.57;;;14.10;99.90;;;;;;4939634;28;20572;-88
2022/06/03 03:51:07;;;;;;;7.73;7.13;;;14.00;99.90;;;;;;4952153;28;20469;-88
2022/06/03 03:53:52;;;;;;;7.60;7.00;;;14.00;99.90;;;;;;4935486;28;20492;-89
2022/06/03 03:56:20;;;;;;;7.80;7.20;;;14.00;99.90;;;;;;4939574;28;20539;-90
2022/06/03 03:59:12;;;;;;;7.47;6.97;;;14.00;99.90;;;;;;4945212;28;20431;-90
2022/06/03 04:02:29;;;;;;;9.13;8.30;;;13.90;99.90;;;;;;4955848;28;20450;-89
2022/06/03 04:05:16;;;;;;;7.90;7.17;;;13.80;99.90;;;;;;4951807;28;20459;-89
2022/06/03 04:08:07;;;;;;;8.20;7.40;;;13.80;99.90;;;;;;4951679;28;20532;-90
2022/06/03 04:10:51;;;;;;;7.47;6.80;;;13.70;99.90;;;;;;4954752;28;20437;-89
2022/06/03 04:13:36;;;;;;;8.63;8.03;;;13.70;99.90;;;;;;4952218;28;20473;-89
2022/06/03 04:16:36;;;;;;;8.00;7.40;;;13.70;99.90;;;;;;4925036;28;20446;-91
2022/06/03 04:19:39;;;;;;;8.00;7.40;;;13.60;99.90;;;;;;4958892;28;20668;-85
2022/06/03 04:22:24;;;;;;;8.97;7.97;;;13.60;99.90;;;;;;4963744;28;20568;-85
2022/06/03 04:25:11;;;;;;;8.40;7.70;;;13.70;99.90;;;;;;4952545;28;20886;-85
2022/06/03 04:27:50;;;;;;;8.03;7.40;;;13.70;99.90;;;;;;4956105;28;20485;-85
2022/06/03 04:30:53;;;;;;;9.50;8.80;;;13.70;99.90;;;;;;4956935;28;20464;-85
2022/06/03 04:34:07;;;;;;;8.17;7.57;;;13.70;99.90;;;;;;4946842;28;20457;-85
2022/06/03 04:36:44;;;;;;;9.00;8.40;;;13.80;99.90;;;;;;4897974;29;20458;-86
2022/06/03 04:39:50;;;;;;;9.53;8.50;;;13.90;99.90;;;;;;4948869;28;20493;-86
2022/06/03 04:43:01;;;;;;;9.10;8.27;;;13.90;99.90;;;;;;4946145;28;20493;-85
2022/06/03 04:46:04;;;;;;;8.37;7.77;;;14.00;99.90;;;;;;4942875;28;21160;-89
2022/06/03 04:49:07;;;;;;;97.30;88.17;;;14.10;99.90;;;;;;4958718;28;20593;-87
2022/06/03 04:51:58;;;;;;;9.80;9.00;;;14.20;99.90;;;;;;4955999;28;20477;-88
2022/06/03 04:54:29;;;;;;;9.93;8.97;;;14.20;99.90;;;;;;4968653;28;20448;-87
2022/06/03 04:57:03;;;;;;;9.57;8.77;;;14.20;99.90;;;;;;4960350;28;20472;-88
2022/06/03 04:59:57;;;;;;;30.07;27.30;;;14.30;99.90;;;;;;4960651;28;20433;-87
2022/06/03 05:02:47;;;;;;;35.10;32.10;;;14.50;99.90;;;;;;4953804;28;20453;-87
2022/06/03 05:05:50;;;;;;;10.90;9.90;;;14.60;99.90;;;;;;4966362;28;20540;-87
2022/06/03 05:09:03;;;;;;;8.70;8.10;;;14.70;99.90;;;;;;4963078;28;20438;-87
2022/06/03 05:11:56;;;;;;;11.83;9.13;;;14.90;99.90;;;;;;4955190;28;20468;-84
2022/06/03 05:14:50;;;;;;;9.53;8.90;;;15.10;99.90;;;;;;4966364;28;20963;-85
2022/06/03 05:17:28;;;;;;;9.60;8.77;;;15.10;99.90;;;;;;4960020;28;20461;-86
2022/06/03 05:20:06;;;;;;;9.23;8.50;;;15.20;99.90;;;;;;4954858;28;21796;-86
2022/06/03 05:22:55;;;;;;;9.20;8.50;;;15.30;99.90;;;;;;4972796;28;20540;-85
2022/06/03 05:25:55;;;;;;;9.80;9.10;;;15.40;99.90;;;;;;4954489;28;21061;-87
2022/06/03 05:28:39;;;;;;;10.03;8.93;;;15.40;99.90;;;;;;4953751;28;20878;-86
2022/06/03 05:31:47;;;;;;;9.43;8.70;;;15.40;99.90;;;;;;4968763;28;20862;-87
2022/06/03 05:34:40;;;;;;;9.90;9.20;;;15.40;99.90;;;;;;4964755;28;20449;-86
2022/06/03 05:37:31;;;;;;;9.53;8.63;;;15.70;99.90;;;;;;4974580;28;20436;-86
2022/06/03 05:40:15;;;;;;;9.77;8.87;;;15.70;99.90;;;;;;4950057;28;20450;-86
2022/06/03 05:43:01;;;;;;;9.80;8.90;;;15.90;99.90;;;;;;4963829;28;20450;-85
2022/06/03 05:46:07;;;;;;;9.93;9.13;;;16.10;99.90;;;;;;4955494;28;20459;-86
2022/06/03 05:48:56;;;;;;;11.87;10.87;;;16.30;99.90;;;;;;4947787;28;20480;-86
2022/06/03 05:51:40;;;;;;;11.03;10.07;;;16.40;99.90;;;;;;4965943;28;22458;-86
2022/06/03 05:54:24;;;;;;;11.50;10.40;;;16.40;99.90;;;;;;4971767;28;20448;-86
2022/06/03 05:57:18;;;;;;;10.17;9.27;;;16.50;99.90;;;;;;4957974;28;20481;-88
2022/06/03 05:59:54;;;;;;;8.63;8.03;;;16.50;99.90;;;;;;4952568;28;20905;-86
2022/06/03 06:02:57;;;;;;;8.40;7.80;;;16.60;99.90;;;;;;4951222;28;20499;-85
2022/06/03 06:05:47;;;;;;;8.70;8.00;;;16.70;99.90;;;;;;4947475;28;20988;-85
2022/06/03 06:08:32;;;;;;;13.73;8.23;;;16.90;99.90;;;;;;4956210;28;20485;-86
2022/06/03 06:11:11;;;;;;;8.20;7.60;;;17.20;99.90;;;;;;4951365;28;21055;-86
2022/06/03 06:13:58;;;;;;;8.53;7.87;;;17.40;99.90;;;;;;4958367;28;20450;-87
2022/06/03 06:16:35;;;;;;;8.23;7.63;;;17.50;99.90;;;;;;4962882;28;20438;-86
2022/06/03 06:22:46;;;;;;;9.47;8.77;;;17.70;99.90;;;;;;4953503;28;20472;-88
2022/06/03 06:25:37;;;;;;;9.53;8.70;;;17.80;99.90;;;;;;4875035;29;20904;-86
2022/06/03 06:28:24;;;;;;;9.43;8.63;;;17.90;99.90;;;;;;4883536;29;20492;-86
2022/06/03 06:30:54;;;;;;;10.17;9.23;;;18.00;99.90;;;;;;4953551;28;20811;-87
2022/06/03 06:33:41;;;;;;;10.37;9.57;;;18.10;99.90;;;;;;4945474;28;20490;-88
2022/06/03 06:36:31;;;;;;;10.50;9.70;;;18.10;99.90;;;;;;4946346;28;20488;-87
2022/06/03 06:39:02;;;;;;;10.77;9.87;;;17.90;99.90;;;;;;4932985;28;21059;-86
2022/06/03 06:41:57;;;;;;;9.07;8.27;;;17.80;99.90;;;;;;4933926;28;20926;-87
2022/06/03 06:44:54;;;;;;;9.53;8.73;;;17.90;99.90;;;;;;4929990;28;20495;-87
2022/06/03 06:47:33;;;;;;;10.80;8.50;;;18.10;99.90;;;;;;4940103;28;20505;-85
2022/06/03 06:50:21;;;;;;;9.17;8.33;;;18.40;99.90;;;;;;4943127;28;20442;-86
2022/06/03 06:52:52;;;;;;;8.03;7.43;;;18.40;99.90;;;;;;4941496;28;20453;-85
2022/06/03 06:55:42;;;;;;;9.80;8.37;;;18.50;99.90;;;;;;4945777;28;20456;-87
2022/06/03 06:58:24;;;;;;;7.90;7.20;;;18.60;99.90;;;;;;4935862;28;20488;-87
2022/06/03 07:00:54;;;;;;;7.87;7.13;;;18.80;99.90;;;;;;4952692;28;20972;-88
2022/06/03 07:03:29;;;;;;;8.33;7.73;;;18.90;99.90;;;;;;4954593;28;20462;-87
2022/06/03 07:06:05;;;;;;;7.77;7.17;;;19.00;99.90;;;;;;4943150;28;20457;-88
2022/06/03 07:08:38;;;;;;;7.97;7.37;;;19.00;99.90;;;;;;4946168;28;20460;-87
2022/06/03 07:11:23;;;;;;;6.83;6.10;;;19.10;99.90;;;;;;4930346;28;20779;-87
2022/06/03 07:14:02;;;;;;;7.40;6.70;;;19.30;99.90;;;;;;4944407;28;20453;-87
2022/06/03 07:20:01;;;;;;;7.57;7.07;;;19.70;99.90;;;;;;4939657;28;21094;-87
2022/06/03 07:22:48;;;;;;;7.87;7.23;;;19.90;99.90;;;;;;4953068;28;20484;-87
2022/06/03 07:25:16;;;;;;;7.40;6.80;;;19.90;99.90;;;;;;4945280;28;20976;-87
2022/06/03 07:28:00;;;;;;;7.23;6.40;;;20.00;99.90;;;;;;4942879;28;20485;-88
2022/06/03 07:30:44;;;;;;;7.37;6.57;;;20.20;99.90;;;;;;4953629;28;21138;-88
2022/06/03 07:33:17;;;;;;;7.00;6.50;;;20.20;99.90;;;;;;4954332;28;20496;-87
2022/06/03 07:36:10;;;;;;;8.73;6.60;;;20.50;99.90;;;;;;4943149;28;20529;-87
2022/06/03 07:38:51;;;;;;;8.10;7.50;;;20.60;99.90;;;;;;4954772;28;20933;-86
2022/06/03 07:41:48;;;;;;;7.60;6.90;;;20.90;99.90;;;;;;4935311;28;20437;-87
2022/06/03 07:44:20;;;;;;;6.70;6.30;;;21.10;99.90;;;;;;4957356;28;20481;-87
2022/06/03 07:46:50;;;;;;;7.50;6.70;;;21.20;99.90;;;;;;4938143;28;20485;-87
2022/06/03 07:49:17;;;;;;;7.53;6.87;;;21.20;99.90;;;;;;4949334;28;20856;-87
2022/06/03 07:51:54;;;;;;;7.17;6.47;;;21.00;99.90;;;;;;4938489;28;20433;-88
2022/06/03 07:54:50;;;;;;;7.00;6.40;;;20.90;99.90;;;;;;4939977;28;20456;-88
2022/06/03 07:57:21;;;;;;;6.07;5.43;;;21.00;99.90;;;;;;4938808;28;20507;-89
2022/06/03 08:00:04;;;;;;;6.80;6.00;;;21.20;99.90;;;;;;4938070;28;20577;-88
2022/06/03 08:02:30;;;;;;;6.60;6.00;;;21.50;99.90;;;;;;4938591;28;20453;-85
2022/06/03 08:05:14;;;;;;;6.87;6.27;;;21.70;99.90;;;;;;4946065;28;20481;-87
2022/06/03 08:13:17;;;;;;;7.17;6.57;;;22.00;99.90;;;;;;4944619;28;20504;-88
2022/06/03 08:16:05;;;;;;;7.00;6.40;;;22.00;99.90;;;;;;4959019;28;21746;-86
2022/06/03 08:18:40;;;;;;;6.40;5.90;;;21.90;99.90;;;;;;4931154;28;21439;-87
2022/06/03 08:21:31;;;;;;;7.17;6.47;;;22.20;99.90;;;;;;4943143;28;20452;-89
2022/06/03 08:23:59;;;;;;;6.10;5.50;;;22.40;99.90;;;;;;4935089;28;20452;-88
2022/06/03 08:26:28;;;;;;;6.10;5.70;;;22.60;99.90;;;;;;4950801;28;20489;-88
2022/06/03 08:29:20;;;;;;;7.00;6.50;;;22.80;99.90;;;;;;4937152;28;20540;-87
2022/06/03 08:31:48;;;;;;;8.37;7.50;;;22.80;99.90;;;;;;4935698;28;20449;-86
2022/06/03 08:34:25;;;;;;;6.63;6.13;;;22.80;99.90;;;;;;4954041;28;20441;-85
2022/06/03 08:36:55;;;;;;;6.77;6.17;;;22.80;99.90;;;;;;4962972;28;20444;-86
2022/06/03 08:39:25;;;;;;;6.40;6.00;;;23.00;99.90;;;;;;4959460;28;20437;-85
2022/06/03 08:42:12;;;;;;;6.93;6.43;;;23.20;99.90;;;;;;4960955;28;20455;-85
2022/06/03 08:45:01;;;;;;;7.53;7.03;;;23.60;99.90;;;;;;4976430;28;20964;-86
2022/06/03 08:47:51;;;;;;;7.30;6.23;;;23.80;99.90;;;;;;4957662;28;20517;-85
2022/06/03 08:50:41;;;;;;;7.87;7.07;;;23.90;99.90;;;;;;4957019;28;20806;-86
2022/06/03 08:53:28;;;;;;;7.80;7.10;;;24.00;99.90;;;;;;4962381;28;20441;-86
2022/06/03 08:55:59;;;;;;;7.73;7.00;;;24.10;99.90;;;;;;4975363;28;20872;-86
2022/06/03 08:58:43;;;;;;;7.93;7.00;;;23.80;99.90;;;;;;4958460;28;20453;-86
2022/06/03 09:01:34;;;;;;;7.30;6.60;;;23.50;99.90;;;;;;4956011;28;20603;-86
2022/06/03 09:04:22;;;;;;;7.20;6.60;;;22.90;99.90;;;;;;4956767;28;20445;-86
2022/06/03 09:07:06;;;;;;;5.87;5.47;;;22.50;99.90;;;;;;4973987;28;20469;-86
2022/06/03 09:09:51;;;;;;;7.80;6.07;;;22.60;99.90;;;;;;4974462;28;20445;-86
2022/06/03 09:12:29;;;;;;;7.93;6.50;;;23.10;99.90;;;;;;4973864;28;20576;-86
2022/06/03 09:14:59;;;;;;;7.93;6.47;;;23.60;99.90;;;;;;4975955;28;20445;-86
2022/06/03 09:17:44;;;;;;;6.90;6.50;;;23.90;99.90;;;;;;4976046;28;21030;-86
2022/06/03 09:20:16;;;;;;;7.20;6.33;;;24.30;99.90;;;;;;4971673;28;20442;-86
2022/06/03 09:22:50;;;;;;;8.20;7.60;;;24.40;99.90;;;;;;4957472;28;20439;-86
2022/06/03 09:25:17;;;;;;;7.23;6.73;;;24.10;99.90;;;;;;4957668;28;20464;-87
2022/06/03 09:27:48;;;;;;;7.47;6.87;;;24.10;99.90;;;;;;4955421;28;20894;-86
2022/06/03 09:30:26;;;;;;;6.70;6.20;;;24.40;99.90;;;;;;4954717;28;20434;-86
2022/06/03 09:32:54;;;;;;;6.90;6.30;;;24.60;99.90;;;;;;4978395;28;20437;-86
2022/06/03 09:35:22;;;;;;;6.87;6.40;;;24.70;99.90;;;;;;4959092;28;20465;-87
2022/06/03 09:37:51;;;;;;;6.40;5.87;;;25.00;99.90;;;;;;4958643;28;20460;-86
2022/06/03 09:40:23;;;;;;;6.40;6.00;;;25.20;99.40;;;;;;4961347;28;20485;-86
2022/06/03 09:42:56;;;;;;;7.00;6.50;;;25.20;98.30;;;;;;4958901;28;20442;-87
2022/06/03 09:45:24;;;;;;;11.80;6.50;;;25.50;99.50;;;;;;4956419;28;20446;-86
2022/06/03 09:47:51;;;;;;;6.73;6.07;;;25.80;99.60;;;;;;4957083;28;20487;-87
2022/06/03 09:50:20;;;;;;;5.90;5.50;;;25.80;97.00;;;;;;4952372;28;21903;-86
2022/06/03 09:52:48;;;;;;;6.33;5.57;;;26.00;97.30;;;;;;4960766;28;20441;-86
2022/06/03 09:55:40;;;;;;;6.73;6.23;;;26.10;96.80;;;;;;4961736;28;20803;-87
2022/06/03 09:58:13;;;;;;;6.37;5.97;;;26.10;97.50;;;;;;4940100;28;20457;-87
2022/06/03 10:00:52;;;;;;;14.33;6.97;;;26.20;96.90;;;;;;4952843;28;20532;-87
2022/06/03 10:03:19;;;;;;;10.40;6.00;;;26.30;97.00;;;;;;4949082;28;20449;-87
2022/06/03 10:05:57;;;;;;;6.30;5.70;;;26.40;96.40;;;;;;4949568;28;20862;-87
2022/06/03 10:08:28;;;;;;;9.20;5.93;;;26.60;96.50;;;;;;4965905;28;20936;-87
2022/06/03 10:13:39;;;;;;;5.70;5.30;;;27.20;95.40;;;;;;4949907;28;20492;-87
2022/06/03 10:16:07;;;;;;;5.60;5.20;;;27.40;95.70;;;;;;4952394;28;20914;-87
2022/06/03 10:18:36;;;;;;;6.37;5.87;;;27.70;94.20;;;;;;4952465;28;20452;-87
2022/06/03 10:21:07;;;;;;;6.63;5.87;;;27.50;92.50;;;;;;4953216;28;21053;-87
2022/06/03 10:23:41;;;;;;;5.97;5.47;;;27.40;94.20;;;;;;4968978;28;20452;-87
2022/06/03 10:26:07;;;;;;;8.40;5.70;;;27.50;94.60;;;;;;4944689;28;20441;-87
2022/06/03 10:28:38;;;;;;;6.27;5.63;;;27.60;95.10;;;;;;4950984;28;20461;-87
2022/06/03 10:31:17;;;;;;;5.50;5.10;;;27.70;93.60;;;;;;4950540;28;20462;-87
2022/06/03 10:33:52;;;;;;;6.00;5.60;;;27.90;95.10;;;;;;4953964;28;20488;-87
2022/06/03 10:36:32;;;;;;;5.60;5.20;;;28.20;93.20;;;;;;4951909;28;20457;-87
2022/06/03 10:39:00;;;;;;;6.10;5.60;;;28.20;92.60;;;;;;4964577;28;20835;-87
2022/06/03 10:41:38;;;;;;;6.37;5.80;;;27.70;94.00;;;;;;4942795;28;20620;-87
2022/06/03 10:44:15;;;;;;;6.17;5.67;;;27.90;93.60;;;;;;4949128;28;20457;-87
2022/06/03 10:47:04;;;;;;;5.93;5.53;;;28.30;93.40;;;;;;4964043;28;20476;-87
2022/06/03 10:49:35;;;;;;;6.00;5.50;;;28.40;93.60;;;;;;4960584;28;20450;-86
2022/06/03 11:03:38;;;;;;;5.00;4.60;;;29.40;90.80;;;;;;4945802;28;21164;-87
2022/06/03 11:06:15;;;;;;;5.30;4.77;;;29.20;91.80;;;;;;4944431;28;21609;-86
2022/06/03 11:08:50;;;;;;;5.17;4.87;;;29.00;91.20;;;;;;4965700;28;20444;-86
2022/06/03 11:11:48;;;;;;;4.80;4.50;;;29.10;91.10;;;;;;4943162;28;20881;-87
2022/06/03 11:14:40;;;;;;;4.40;4.10;;;29.30;90.10;;;;;;4955468;28;20449;-84
2022/06/03 11:17:17;;;;;;;6.07;4.60;;;29.40;86.60;;;;;;4948814;28;20631;-84
2022/06/03 11:19:49;;;;;;;4.93;4.40;;;29.10;87.20;;;;;;4950981;28;20532;-84
2022/06/03 11:22:24;;;;;;;4.80;4.40;;;29.10;86.90;;;;;;4941866;28;20446;-84
2022/06/03 11:24:56;;;;;;;4.97;4.50;;;28.80;89.10;;;;;;4965782;28;20455;-86
2022/06/03 11:27:32;;;;;;;5.27;4.80;;;28.60;90.20;;;;;;4956556;28;20481;-86
2022/06/03 11:30:05;;;;;;;5.50;5.10;;;28.20;90.50;;;;;;4969986;28;21036;-86
2022/06/03 11:32:37;;;;;;;5.10;4.80;;;27.60;91.40;;;;;;4950141;28;20544;-86
2022/06/03 11:35:14;;;;;;;4.93;4.57;;;27.40;90.70;;;;;;4947258;28;20774;-86
2022/06/03 11:37:44;;;;;;;5.27;4.87;;;27.50;91.50;;;;;;4969083;28;20985;-86
2022/06/03 11:40:12;;;;;;;5.27;4.70;;;27.60;91.30;;;;;;4951501;28;20590;-86
2022/06/03 11:42:50;;;;;;;5.80;5.40;;;28.00;91.30;;;;;;4964874;28;20483;-87
2022/06/03 11:45:19;;;;;;;5.97;5.37;;;28.20;91.20;;;;;;4951346;28;20444;-86
2022/06/03 11:47:58;;;;;;;5.50;5.00;;;28.60;92.00;;;;;;4951231;28;20481;-87
2022/06/03 11:50:27;;;;;;;5.13;4.83;;;28.60;90.10;;;;;;4943428;28;21033;-87
2022/06/03 11:52:54;;;;;;;5.23;4.93;;;27.90;89.70;;;;;;4940964;28;20645;-87
2022/06/03 11:55:21;;;;;;;5.70;4.77;;;27.50;90.60;;;;;;4963944;28;20450;-87
2022/06/03 11:58:20;;;;;;;5.20;4.90;;;27.50;91.00;;;;;;4940505;28;20783;-87
2022/06/03 12:00:58;;;;;;;5.33;5.03;;;27.30;90.80;;;;;;4962539;28;21015;-86
2022/06/03 12:03:55;;;;;;;5.57;5.23;;;26.70;90.90;;;;;;4944670;28;20495;-86
2022/06/03 12:06:30;;;;;;;5.87;4.20;;;26.90;92.30;;;;;;4960556;28;21019;-86
2022/06/03 12:09:19;;;;;;;4.97;4.60;;;27.30;91.30;;;;;;4941363;28;20441;-87
2022/06/03 12:14:49;;;;;;;5.90;5.50;;;27.70;92.50;;;;;;4944058;28;20507;-86
2022/06/03 12:17:14;;;;;;;7.23;5.57;;;27.90;93.10;;;;;;4944507;28;20454;-86
2022/06/03 12:19:44;;;;;;;5.37;5.03;;;28.00;92.60;;;;;;4960524;28;20186;-86
2022/06/03 12:22:28;;;;;;;5.80;5.30;;;28.20;91.90;;;;;;4945385;28;20196;-86
2022/06/03 12:24:55;;;;;;;5.67;5.27;;;28.40;92.20;;;;;;4947884;28;20449;-86
2022/06/03 12:27:30;;;;;;;4.93;4.67;;;28.40;91.30;;;;;;4949147;28;21380;-86
2022/06/03 12:30:18;;;;;;;5.23;4.87;;;28.40;91.10;;;;;;4943564;28;20529;-84
2022/06/03 12:32:53;;;;;;;5.40;4.90;;;28.60;89.10;;;;;;4950400;28;20476;-85
2022/06/03 12:35:44;;;;;;;14.30;13.17;;;28.50;90.00;;;;;;4945461;28;20465;-86
2022/06/03 12:38:19;;;;;;;5.30;4.90;;;28.30;90.40;;;;;;4948260;28;20480;-86
2022/06/03 12:40:47;;;;;;;5.37;5.00;;;28.40;90.40;;;;;;4956701;28;20484;-85
2022/06/03 12:43:28;;;;;;;5.87;5.47;;;28.40;89.10;;;;;;4950743;28;20439;-85
2022/06/03 12:46:07;;;;;;;105.07;96.40;;;27.80;89.00;;;;;;4971275;28;20449;-86
2022/06/03 12:48:48;;;;;;;27.97;25.83;;;27.60;90.70;;;;;;4956284;28;20465;-87
2022/06/03 12:51:26;;;;;;;8.83;8.23;;;27.50;91.00;;;;;;4950572;28;20451;-89
2022/06/03 12:53:59;;;;;;;5.73;5.23;;;27.50;91.40;;;;;;4943418;28;20453;-87
2022/06/03 12:56:27;;;;;;;5.80;5.23;;;27.50;91.50;;;;;;4952739;28;20456;-87
2022/06/03 12:59:17;;;;;;;5.37;5.07;;;27.30;91.50;;;;;;4940358;28;20457;-85
2022/06/03 13:01:47;;;;;;;5.17;4.77;;;27.10;92.50;;;;;;4932327;28;20536;-86
2022/06/03 13:04:37;;;;;;;5.03;4.73;;;27.10;91.80;;;;;;4930297;28;20438;-85
2022/06/03 13:07:27;;;;;;;5.83;5.20;;;27.10;90.40;;;;;;4945214;28;20477;-86
2022/06/03 13:10:02;;;;;;;5.20;4.90;;;27.20;90.30;;;;;;4951844;28;21756;-86
2022/06/03 13:12:36;;;;;;;5.70;5.27;;;27.60;90.80;;;;;;4971236;28;20441;-86
2022/06/03 13:15:20;;;;;;;5.00;4.70;;;27.80;88.90;;;;;;4971439;28;20469;-85
2022/06/03 13:18:20;;;;;;;5.43;4.93;;;27.90;88.10;;;;;;4953409;28;20441;-86
2022/06/03 13:21:01;;;;;;;4.80;4.60;;;28.20;88.80;;;;;;4970268;28;20553;-86
2022/06/03 13:23:34;;;;;;;4.87;4.50;;;28.50;87.60;;;;;;4972230;28;20476;-86
2022/06/03 13:26:30;;;;;;;4.90;4.53;;;28.30;87.70;;;;;;4948322;28;20453;-86
2022/06/03 13:29:07;;;;;;;5.50;5.10;;;27.80;87.80;;;;;;4970705;28;20469;-85
2022/06/03 13:31:59;;;;;;;5.00;4.70;;;27.30;89.80;;;;;;4954259;28;20441;-86
2022/06/03 13:34:30;;;;;;;5.30;4.97;;;26.70;90.90;;;;;;4953431;28;20478;-86
2022/06/03 13:37:28;;;;;;;5.40;5.03;;;26.30;91.10;;;;;;4948597;28;20464;-86
2022/06/03 13:39:54;;;;;;;4.93;4.50;;;26.00;92.00;;;;;;4970289;28;21067;-86
2022/06/03 13:45:04;;;;;;;6.17;5.57;;;25.80;93.00;;;;;;4954912;28;20544;-85
2022/06/03 13:47:35;;;;;;;6.13;5.73;;;25.80;94.00;;;;;;4970363;28;20489;-86
2022/06/03 13:50:01;;;;;;;6.17;5.80;;;25.80;94.50;;;;;;4962073;28;20284;-86
2022/06/03 13:52:34;;;;;;;5.80;5.37;;;25.80;95.20;;;;;;4953970;28;20472;-86
2022/06/03 13:55:05;;;;;;;6.00;5.63;;;25.80;96.10;;;;;;4947446;28;20186;-86
2022/06/03 13:57:35;;;;;;;6.40;6.00;;;25.70;96.30;;;;;;4955272;28;20446;-86
2022/06/03 14:00:16;;;;;;;6.90;6.40;;;25.50;96.90;;;;;;4939514;28;20520;-84
2022/06/03 14:02:44;;;;;;;6.70;6.20;;;25.40;97.90;;;;;;4947900;28;20469;-85
2022/06/03 14:05:25;;;;;;;6.93;6.43;;;25.20;98.20;;;;;;4931951;28;20539;-86
2022/06/03 14:08:02;;;;;;;6.33;5.93;;;25.00;98.20;;;;;;4933019;28;20481;-84
2022/06/03 14:10:42;;;;;;;6.70;6.30;;;24.80;98.70;;;;;;4931298;28;21482;-84
2022/06/03 14:13:44;;;;;;;7.03;6.43;;;24.70;99.30;;;;;;4949885;28;20449;-84
2022/06/03 14:16:19;;;;;;;7.30;6.80;;;24.70;99.80;;;;;;4925172;28;20760;-84
2022/06/03 14:18:57;;;;;;;6.60;6.20;;;24.60;99.90;;;;;;4932662;28;21214;-84
2022/06/03 14:21:53;;;;;;;7.60;6.50;;;24.60;99.90;;;;;;4950489;28;20449;-84
2022/06/03 14:24:30;;;;;;;7.37;6.77;;;24.50;99.90;;;;;;4932991;28;20565;-84
2022/06/03 14:27:19;;;;;;;6.67;6.27;;;24.50;99.90;;;;;;4928789;28;22525;-85
2022/06/03 14:29:53;;;;;;;6.80;6.20;;;24.50;99.90;;;;;;4935478;28;20469;-84
2022/06/03 14:32:23;;;;;;;6.80;6.23;;;24.60;99.90;;;;;;4951132;28;20484;-84
2022/06/03 14:35:06;;;;;;;6.90;6.43;;;24.60;99.90;;;;;;4935494;28;20446;-83
2022/06/03 14:37:49;;;;;;;6.63;6.03;;;24.60;99.90;;;;;;4927751;28;20464;-83
2022/06/03 14:40:36;;;;;;;6.03;5.60;;;24.60;99.90;;;;;;4931551;28;20775;-83